createdAt,value
2023-05-19T00:00:34.925Z,47.55
2023-05-19T00:01:30.150Z,47.96
2023-05-19T00:02:25.744Z,47.75
2023-05-19T00:03:21.288Z,47.86
2023-05-19T00:04:16.784Z,47.25
2023-05-19T00:05:12.331Z,47.14
2023-05-19T00:06:07.949Z,47.45
2023-05-19T00:07:03.404Z,46.86
2023-05-19T00:07:58.938Z,46.97
2023-05-19T00:08:54.477Z,47.35
2023-05-19T00:09:50.022Z,46.97
2023-05-19T00:10:45.551Z,46.97
2023-05-19T00:11:41.097Z,46.76
2023-05-19T00:12:36.633Z,47.37
2023-05-19T00:13:32.181Z,47.47
2023-05-19T00:14:27.749Z,46.97
2023-05-19T00:15:23.278Z,47.35
2023-05-19T00:16:18.873Z,47.78
2023-05-19T00:17:14.342Z,47.88
2023-05-19T00:18:09.925Z,47.88
2023-05-19T00:19:05.435Z,47.88
2023-05-19T00:20:01.000Z,47.67
2023-05-19T00:20:56.522Z,47.78
2023-05-19T00:21:52.058Z,47.78
2023-05-19T00:22:47.594Z,48.19
2023-05-19T00:23:43.145Z,47.58
2023-05-19T00:24:38.673Z,47.78
2023-05-19T00:25:34.215Z,48.49
2023-05-19T00:26:29.790Z,47.80
2023-05-19T00:27:25.330Z,48.08
2023-05-19T00:28:20.866Z,47.60
2023-05-19T00:29:16.389Z,47.78
2023-05-19T00:30:11.951Z,47.39
2023-05-19T00:31:07.482Z,47.80
2023-05-19T00:32:03.043Z,47.60
2023-05-19T00:32:58.627Z,48.00
2023-05-19T00:33:54.109Z,48.21
2023-05-19T00:34:49.634Z,47.80
2023-05-19T00:35:45.174Z,48.31
2023-05-19T00:36:40.725Z,47.70
2023-05-19T00:37:36.263Z,47.60
2023-05-19T00:38:31.811Z,47.60
2023-05-19T00:39:27.368Z,47.90
2023-05-19T00:40:22.896Z,48.21
2023-05-19T00:41:18.457Z,47.90
2023-05-19T00:42:13.975Z,47.60
2023-05-19T00:43:09.526Z,48.31
2023-05-19T00:44:05.084Z,47.90
2023-05-19T00:45:00.627Z,48.21
2023-05-19T00:45:56.175Z,47.60
2023-05-19T00:46:51.705Z,47.50
2023-05-19T00:47:47.245Z,48.74
2023-05-19T00:48:42.784Z,47.62
2023-05-19T00:49:38.345Z,48.64
2023-05-19T00:50:34.190Z,48.33
2023-05-19T00:51:29.410Z,48.43
2023-05-19T00:52:24.947Z,48.41
2023-05-19T00:53:20.550Z,48.21
2023-05-19T00:54:16.012Z,48.13
2023-05-19T00:55:11.578Z,48.64
2023-05-19T00:56:07.107Z,47.72
2023-05-19T00:57:02.630Z,47.72
2023-05-19T00:57:58.170Z,47.72
2023-05-19T00:58:53.741Z,47.62
2023-05-19T00:59:49.292Z,48.13
2023-05-19T01:00:44.865Z,47.90
2023-05-19T01:01:40.411Z,48.74
2023-05-19T01:02:35.963Z,47.52
2023-05-19T01:03:31.689Z,48.33
2023-05-19T01:04:27.005Z,48.33
2023-05-19T01:05:22.556Z,48.23
2023-05-19T01:06:18.096Z,48.33
2023-05-19T01:07:13.645Z,48.03
2023-05-19T01:08:09.186Z,48.33
2023-05-19T01:09:04.725Z,48.43
2023-05-19T01:10:00.266Z,48.23
2023-05-19T01:10:55.804Z,48.23
2023-05-19T01:11:51.340Z,48.43
2023-05-19T01:12:46.881Z,48.46
2023-05-19T01:13:42.433Z,48.66
2023-05-19T01:14:37.948Z,48.23
2023-05-19T01:15:33.491Z,48.86
2023-05-19T01:16:29.045Z,48.25
2023-05-19T01:17:24.608Z,48.25
2023-05-19T01:18:20.130Z,48.15
2023-05-19T01:19:15.708Z,48.05
2023-05-19T01:20:11.207Z,48.86
2023-05-19T01:21:06.768Z,48.56
2023-05-19T01:22:02.307Z,48.35
2023-05-19T01:22:57.855Z,48.66
2023-05-19T01:23:53.431Z,48.56
2023-05-19T01:24:48.989Z,48.66
2023-05-19T01:25:44.543Z,48.46
2023-05-19T01:26:40.069Z,48.76
2023-05-19T01:27:35.606Z,48.66
2023-05-19T01:28:31.149Z,48.56
2023-05-19T01:29:26.709Z,48.35
2023-05-19T01:30:22.266Z,48.86
2023-05-19T01:31:17.793Z,48.58
2023-05-19T01:32:13.471Z,48.79
2023-05-19T01:33:08.941Z,49.09
2023-05-19T01:34:04.416Z,48.68
2023-05-19T01:34:59.941Z,48.56
2023-05-19T01:35:55.503Z,48.76
2023-05-19T01:36:51.022Z,48.86
2023-05-19T01:37:46.565Z,49.09
2023-05-19T01:38:42.104Z,48.99
2023-05-19T01:39:37.638Z,49.19
2023-05-19T01:40:33.609Z,49.40
2023-05-19T01:41:28.715Z,49.29
2023-05-19T01:42:24.243Z,49.29
2023-05-19T01:43:19.778Z,49.07
2023-05-19T01:44:15.310Z,49.17
2023-05-19T01:45:10.869Z,48.48
2023-05-19T01:46:06.445Z,49.60
2023-05-19T01:47:01.920Z,49.29
2023-05-19T01:47:57.485Z,48.99
2023-05-19T01:48:53.008Z,48.79
2023-05-19T01:49:48.520Z,49.29
2023-05-19T01:50:44.062Z,48.48
2023-05-19T01:51:39.608Z,48.99
2023-05-19T01:52:35.146Z,49.40
2023-05-19T01:53:30.680Z,49.29
2023-05-19T01:54:26.221Z,49.29
2023-05-19T01:55:21.754Z,48.68
2023-05-19T01:56:17.309Z,48.99
2023-05-19T01:57:12.906Z,49.60
2023-05-19T01:58:08.416Z,48.89
2023-05-19T01:59:03.947Z,48.79
2023-05-19T01:59:59.470Z,49.40
2023-05-19T02:00:55.048Z,49.40
2023-05-19T02:01:50.551Z,48.79
2023-05-19T02:02:46.115Z,49.40
2023-05-19T02:03:41.645Z,49.19
2023-05-19T02:04:37.234Z,49.09
2023-05-19T02:05:32.723Z,48.99
2023-05-19T02:06:28.251Z,48.99
2023-05-19T02:07:23.794Z,49.19
2023-05-19T02:08:19.330Z,48.99
2023-05-19T02:09:14.868Z,49.11
2023-05-19T02:10:10.418Z,49.32
2023-05-19T02:11:05.942Z,49.32
2023-05-19T02:12:01.478Z,49.50
2023-05-19T02:12:57.014Z,49.01
2023-05-19T02:13:52.549Z,48.91
2023-05-19T02:14:48.110Z,49.21
2023-05-19T02:15:43.700Z,49.01
2023-05-19T02:16:39.190Z,48.91
2023-05-19T02:17:34.733Z,49.42
2023-05-19T02:18:30.275Z,49.32
2023-05-19T02:19:25.986Z,49.52
2023-05-19T02:20:21.414Z,49.83
2023-05-19T02:21:16.922Z,49.32
2023-05-19T02:22:12.464Z,49.83
2023-05-19T02:23:07.999Z,49.32
2023-05-19T02:24:03.548Z,49.52
2023-05-19T02:24:59.130Z,49.73
2023-05-19T02:25:54.657Z,49.73
2023-05-19T02:26:50.172Z,49.73
2023-05-19T02:27:45.733Z,49.62
2023-05-19T02:28:41.266Z,49.73
2023-05-19T02:29:36.808Z,49.93
2023-05-19T02:30:32.745Z,49.73
2023-05-19T02:31:27.964Z,49.73
2023-05-19T02:32:23.453Z,50.46
2023-05-19T02:33:19.026Z,50.36
2023-05-19T02:34:14.567Z,49.13
2023-05-19T02:35:10.117Z,49.54
2023-05-19T02:36:05.664Z,50.36
2023-05-19T02:36:50.298Z,49.54
2023-05-19T02:37:45.878Z,50.56
2023-05-19T02:38:30.542Z,50.56
2023-05-19T02:39:26.084Z,49.21
2023-05-19T02:40:21.614Z,49.44
2023-05-19T02:41:17.160Z,50.56
2023-05-19T02:42:12.701Z,49.65
2023-05-19T02:43:08.243Z,49.44
2023-05-19T02:44:03.781Z,50.54
2023-05-19T02:44:59.310Z,49.54
2023-05-19T02:45:54.887Z,49.44
2023-05-19T02:46:39.367Z,49.44
2023-05-19T02:47:37.057Z,50.56
2023-05-19T02:48:30.399Z,49.54
2023-05-19T02:49:25.936Z,49.65
2023-05-19T02:50:21.478Z,49.54
2023-05-19T02:51:17.053Z,49.13
2023-05-19T02:52:12.564Z,50.46
2023-05-19T02:53:08.110Z,49.85
2023-05-19T02:54:03.658Z,49.95
2023-05-19T02:54:59.223Z,49.44
2023-05-19T02:55:54.778Z,49.65
2023-05-19T02:56:50.306Z,49.65
2023-05-19T02:57:45.842Z,49.34
2023-05-19T02:58:41.389Z,50.56
2023-05-19T02:59:36.941Z,50.56
2023-05-19T03:00:32.774Z,49.34
2023-05-19T03:01:28.014Z,50.77
2023-05-19T03:02:12.571Z,49.54
2023-05-19T03:03:08.076Z,50.26
2023-05-19T03:04:03.654Z,50.67
2023-05-19T03:04:59.129Z,50.77
2023-05-19T03:05:54.668Z,50.36
2023-05-19T03:06:50.363Z,50.77
2023-05-19T03:07:45.759Z,50.56
2023-05-19T03:08:42.444Z,50.46
2023-05-19T03:09:36.824Z,50.87
2023-05-19T03:10:32.512Z,50.77
2023-05-19T03:11:27.913Z,50.56
2023-05-19T03:12:23.438Z,50.36
2023-05-19T03:13:18.985Z,50.77
2023-05-19T03:14:14.536Z,50.77
2023-05-19T03:15:10.059Z,50.46
2023-05-19T03:16:05.660Z,50.56
2023-05-19T03:17:01.181Z,50.46
2023-05-19T03:17:56.761Z,50.56
2023-05-19T03:18:52.237Z,49.13
2023-05-19T03:19:47.777Z,50.97
2023-05-19T03:20:43.306Z,50.77
2023-05-19T03:21:38.867Z,50.97
2023-05-19T03:22:34.424Z,50.97
2023-05-19T03:23:29.965Z,50.97
2023-05-19T03:24:25.500Z,50.36
2023-05-19T03:25:21.071Z,50.59
2023-05-19T03:26:16.571Z,50.87
2023-05-19T03:27:12.120Z,50.77
2023-05-19T03:28:07.653Z,50.77
2023-05-19T03:29:03.198Z,50.77
2023-05-19T03:29:58.733Z,50.77
2023-05-19T03:30:54.282Z,50.67
2023-05-19T03:31:49.806Z,50.46
2023-05-19T03:32:45.406Z,50.87
2023-05-19T03:33:40.947Z,50.46
2023-05-19T03:34:36.433Z,50.77
2023-05-19T03:35:31.982Z,50.46
2023-05-19T03:36:16.630Z,50.36
2023-05-19T03:37:12.161Z,49.13
2023-05-19T03:38:07.744Z,50.77
2023-05-19T03:39:03.253Z,51.28
2023-05-19T03:39:47.918Z,51.28
2023-05-19T03:40:43.463Z,50.67
2023-05-19T03:41:39.004Z,51.48
2023-05-19T03:42:34.546Z,51.28
2023-05-19T03:43:30.098Z,51.28
2023-05-19T03:44:25.624Z,51.07
2023-05-19T03:45:21.219Z,50.87
2023-05-19T03:46:16.786Z,50.89
2023-05-19T03:47:13.282Z,50.87
2023-05-19T03:48:08.880Z,51.17
2023-05-19T03:49:04.377Z,50.97
2023-05-19T03:49:59.927Z,50.97
2023-05-19T03:50:55.465Z,51.28
2023-05-19T03:51:51.012Z,50.97
2023-05-19T03:52:46.594Z,51.17
2023-05-19T03:53:42.224Z,51.17
2023-05-19T03:54:37.616Z,50.46
2023-05-19T03:55:33.155Z,50.97
2023-05-19T03:56:28.710Z,51.28
2023-05-19T03:57:24.279Z,50.46
2023-05-19T03:58:19.826Z,51.68
2023-05-19T03:59:15.352Z,51.48
2023-05-19T04:00:10.889Z,50.67
2023-05-19T04:01:06.422Z,50.46
2023-05-19T04:02:01.986Z,50.77
2023-05-19T04:02:57.641Z,50.64
2023-05-19T04:03:53.032Z,50.54
2023-05-19T04:04:48.691Z,51.58
2023-05-19T04:05:44.124Z,50.67
2023-05-19T04:06:39.667Z,50.56
2023-05-19T04:07:35.210Z,50.77
2023-05-19T04:08:30.745Z,51.48
2023-05-19T04:09:26.297Z,51.28
2023-05-19T04:10:21.845Z,50.67
2023-05-19T04:11:17.345Z,50.97
2023-05-19T04:12:12.893Z,52.09
2023-05-19T04:13:08.469Z,50.77
2023-05-19T04:14:04.015Z,51.17
2023-05-19T04:14:59.559Z,51.07
2023-05-19T04:15:55.146Z,50.77
2023-05-19T04:16:50.646Z,51.17
2023-05-19T04:17:46.230Z,51.17
2023-05-19T04:18:41.772Z,50.97
2023-05-19T04:19:37.267Z,51.28
2023-05-19T04:20:32.963Z,51.48
2023-05-19T04:21:28.329Z,50.77
2023-05-19T04:22:23.866Z,51.58
2023-05-19T04:23:19.404Z,51.79
2023-05-19T04:24:14.965Z,51.38
2023-05-19T04:25:10.556Z,51.89
2023-05-19T04:26:06.037Z,51.17
2023-05-19T04:27:01.565Z,51.28
2023-05-19T04:27:57.105Z,50.87
2023-05-19T04:28:52.637Z,51.28
2023-05-19T04:29:48.184Z,51.28
2023-05-19T04:30:43.719Z,51.25
2023-05-19T04:31:39.284Z,51.46
2023-05-19T04:32:34.827Z,50.77
2023-05-19T04:33:30.347Z,50.74
2023-05-19T04:34:25.871Z,50.74
2023-05-19T04:35:21.420Z,51.46
2023-05-19T04:36:16.952Z,51.17
2023-05-19T04:37:12.528Z,51.38
2023-05-19T04:38:08.043Z,51.79
2023-05-19T04:39:03.584Z,51.35
2023-05-19T04:39:59.132Z,51.35
2023-05-19T04:40:54.765Z,50.74
2023-05-19T04:41:50.206Z,51.56
2023-05-19T04:42:45.813Z,51.97
2023-05-19T04:43:41.290Z,51.76
2023-05-19T04:44:36.830Z,50.74
2023-05-19T04:45:32.363Z,51.56
2023-05-19T04:46:27.921Z,51.66
2023-05-19T04:47:23.523Z,51.56
2023-05-19T04:48:18.996Z,51.56
2023-05-19T04:49:14.535Z,51.66
2023-05-19T04:50:10.075Z,52.48
2023-05-19T04:51:05.616Z,51.15
2023-05-19T04:52:01.160Z,51.66
2023-05-19T04:52:56.700Z,51.33
2023-05-19T04:53:52.225Z,51.66
2023-05-19T04:54:47.782Z,52.07
2023-05-19T04:55:43.333Z,51.66
2023-05-19T04:56:38.899Z,52.48
2023-05-19T04:57:34.442Z,51.66
2023-05-19T04:58:29.993Z,51.35
2023-05-19T04:59:25.533Z,51.97
2023-05-19T05:00:21.086Z,52.48
2023-05-19T05:01:16.628Z,52.25
2023-05-19T05:02:12.296Z,52.25
2023-05-19T05:03:07.808Z,52.35
2023-05-19T05:04:03.405Z,52.66
2023-05-19T05:04:58.775Z,52.35
2023-05-19T05:05:54.307Z,52.55
2023-05-19T05:06:49.843Z,52.58
2023-05-19T05:07:45.373Z,52.35
2023-05-19T05:08:40.918Z,52.25
2023-05-19T05:09:36.461Z,52.55
2023-05-19T05:10:32.292Z,52.35
2023-05-19T05:11:27.557Z,52.15
2023-05-19T05:12:23.110Z,52.25
2023-05-19T05:13:19.636Z,52.35
2023-05-19T05:14:15.217Z,52.76
2023-05-19T05:15:10.751Z,52.45
2023-05-19T05:16:06.309Z,52.55
2023-05-19T05:17:01.832Z,53.16
2023-05-19T05:17:57.397Z,52.45
2023-05-19T05:18:52.995Z,53.27
2023-05-19T05:19:48.503Z,53.37
2023-05-19T05:20:44.033Z,52.96
2023-05-19T05:21:39.564Z,53.06
2023-05-19T05:22:24.244Z,52.66
2023-05-19T05:23:19.779Z,52.35
2023-05-19T05:24:15.314Z,53.06
2023-05-19T05:25:10.874Z,52.25
2023-05-19T05:26:06.405Z,52.55
2023-05-19T05:27:01.959Z,52.73
2023-05-19T05:27:57.507Z,52.22
2023-05-19T05:28:53.059Z,53.04
2023-05-19T05:29:48.602Z,53.16
2023-05-19T05:30:44.138Z,53.34
2023-05-19T05:31:39.684Z,53.55
2023-05-19T05:32:35.276Z,52.83
2023-05-19T05:33:30.835Z,52.33
2023-05-19T05:34:26.286Z,53.24
2023-05-19T05:35:21.860Z,53.24
2023-05-19T05:36:17.410Z,53.34
2023-05-19T05:37:15.232Z,52.53
2023-05-19T05:38:08.482Z,53.34
2023-05-19T05:39:04.017Z,52.73
2023-05-19T05:39:59.576Z,53.34
2023-05-19T05:40:55.115Z,52.43
2023-05-19T05:41:50.662Z,53.14
2023-05-19T05:42:46.197Z,53.04
2023-05-19T05:43:41.810Z,52.83
2023-05-19T05:44:37.314Z,52.83
2023-05-19T05:45:33.228Z,53.14
2023-05-19T05:46:28.521Z,53.11
2023-05-19T05:47:23.910Z,53.44
2023-05-19T05:48:19.465Z,53.24
2023-05-19T05:49:15.001Z,53.24
2023-05-19T05:50:10.550Z,53.32
2023-05-19T05:51:06.094Z,52.91
2023-05-19T05:52:06.307Z,53.02
2023-05-19T05:52:57.179Z,53.02
2023-05-19T05:53:52.733Z,52.40
2023-05-19T05:54:48.276Z,53.42
2023-05-19T05:55:43.819Z,53.11
2023-05-19T05:56:28.498Z,53.22
2023-05-19T05:57:24.043Z,52.20
2023-05-19T05:58:19.568Z,52.30
2023-05-19T05:59:15.143Z,53.11
2023-05-19T06:00:10.654Z,52.91
2023-05-19T06:01:06.211Z,52.71
2023-05-19T06:02:01.755Z,52.81
2023-05-19T06:02:57.453Z,52.71
2023-05-19T06:03:52.834Z,53.22
2023-05-19T06:04:48.385Z,53.02
2023-05-19T06:05:43.999Z,53.02
2023-05-19T06:06:39.473Z,53.22
2023-05-19T06:07:35.019Z,53.32
2023-05-19T06:08:19.671Z,53.11
2023-05-19T06:09:15.197Z,53.63
2023-05-19T06:10:10.748Z,53.02
2023-05-19T06:11:06.283Z,53.09
2023-05-19T06:12:01.825Z,53.22
2023-05-19T06:12:57.393Z,53.09
2023-05-19T06:13:52.900Z,52.98
2023-05-19T06:14:48.491Z,53.09
2023-05-19T06:15:44.006Z,53.59
2023-05-19T06:16:39.836Z,52.89
2023-05-19T06:17:35.070Z,52.98
2023-05-19T06:18:30.611Z,52.98
2023-05-19T06:19:26.235Z,52.89
2023-05-19T06:20:21.717Z,53.09
2023-05-19T06:21:06.381Z,53.19
2023-05-19T06:22:01.920Z,53.50
2023-05-19T06:22:57.460Z,52.76
2023-05-19T06:23:53.023Z,53.37
2023-05-19T06:24:48.595Z,53.06
2023-05-19T06:25:44.163Z,52.96
2023-05-19T06:26:39.707Z,52.96
2023-05-19T06:27:24.376Z,53.04
2023-05-19T06:28:19.909Z,53.04
2023-05-19T06:29:15.426Z,52.12
2023-05-19T06:30:11.116Z,53.34
2023-05-19T06:31:06.584Z,52.91
2023-05-19T06:32:02.092Z,52.30
2023-05-19T06:32:57.714Z,52.40
2023-05-19T06:33:53.168Z,52.69
2023-05-19T06:34:48.718Z,52.28
2023-05-19T06:35:44.286Z,52.05
2023-05-19T06:36:39.833Z,52.05
2023-05-19T06:37:35.373Z,51.54
2023-05-19T06:38:30.906Z,51.24
2023-05-19T06:39:26.466Z,51.34
2023-05-19T06:40:11.115Z,50.51
2023-05-19T06:41:06.652Z,51.42
2023-05-19T06:42:02.194Z,51.12
2023-05-19T06:42:57.730Z,51.12
2023-05-19T06:43:53.263Z,51.01
2023-05-19T06:44:48.810Z,51.52
2023-05-19T06:45:44.386Z,50.99
2023-05-19T06:46:39.945Z,51.39
2023-05-19T06:47:35.492Z,50.68
2023-05-19T06:48:30.988Z,50.46
2023-05-19T06:49:26.529Z,50.46
2023-05-19T06:50:22.075Z,50.96
2023-05-19T06:51:17.616Z,50.46
2023-05-19T06:52:13.163Z,50.54
2023-05-19T06:53:08.711Z,50.84
2023-05-19T06:54:04.249Z,50.82
2023-05-19T06:54:59.792Z,50.61
2023-05-19T06:55:59.980Z,50.51
2023-05-19T06:56:50.858Z,50.41
2023-05-19T06:57:46.402Z,50.31
2023-05-19T06:58:41.938Z,50.59
2023-05-19T06:59:37.498Z,50.29
2023-05-19T07:00:33.209Z,49.90
2023-05-19T07:01:28.745Z,49.58
2023-05-19T07:02:24.128Z,49.07
2023-05-19T07:03:19.748Z,48.97
2023-05-19T07:04:15.246Z,49.25
2023-05-19T07:05:10.805Z,48.85
2023-05-19T07:06:08.105Z,49.05
2023-05-19T07:07:01.897Z,49.33
2023-05-19T07:07:57.443Z,49.43
2023-05-19T07:08:53.010Z,48.62
2023-05-19T07:09:48.513Z,48.60
2023-05-19T07:10:44.071Z,48.80
2023-05-19T07:11:39.598Z,48.80
2023-05-19T07:12:35.132Z,48.60
2023-05-19T07:13:30.685Z,49.21
2023-05-19T07:14:26.228Z,48.58
2023-05-19T07:15:21.793Z,47.97
2023-05-19T07:16:17.361Z,48.68
2023-05-19T07:17:02.150Z,48.07
2023-05-19T07:17:57.562Z,47.95
2023-05-19T07:18:53.071Z,48.15
2023-05-19T07:19:37.724Z,47.95
2023-05-19T07:20:33.525Z,47.52
2023-05-19T07:21:28.862Z,47.09
2023-05-19T07:22:24.418Z,47.19
2023-05-19T07:23:19.972Z,47.50
2023-05-19T07:24:15.511Z,47.60
2023-05-19T07:25:11.071Z,46.77
2023-05-19T07:26:06.600Z,46.57
2023-05-19T07:27:02.146Z,46.77
2023-05-19T07:27:57.696Z,46.25
2023-05-19T07:28:53.239Z,46.26
2023-05-19T07:29:48.786Z,46.34
2023-05-19T07:30:44.330Z,46.75
2023-05-19T07:31:29.046Z,46.55
2023-05-19T07:32:13.845Z,46.34
2023-05-19T07:33:09.313Z,46.33
2023-05-19T07:34:04.787Z,46.33
2023-05-19T07:35:00.331Z,46.33
2023-05-19T07:35:45.002Z,45.42
2023-05-19T07:36:40.537Z,44.71
2023-05-19T07:37:36.126Z,45.42
2023-05-19T07:38:31.698Z,45.52
2023-05-19T07:39:27.201Z,45.21
2023-05-19T07:40:22.754Z,45.52
2023-05-19T07:41:18.290Z,45.12
2023-05-19T07:42:13.830Z,45.42
2023-05-19T07:43:09.369Z,45.09
2023-05-19T07:43:54.036Z,45.09
2023-05-19T07:44:49.584Z,45.32
2023-05-19T07:45:45.192Z,45.19
2023-05-19T07:46:40.667Z,44.39
2023-05-19T07:47:36.391Z,44.79
2023-05-19T07:48:31.729Z,44.69
2023-05-19T07:49:27.260Z,44.39
2023-05-19T07:50:22.830Z,44.79
2023-05-19T07:51:18.348Z,44.19
2023-05-19T07:52:13.903Z,44.29
2023-05-19T07:53:09.436Z,44.29
2023-05-19T07:54:05.014Z,44.69
2023-05-19T07:54:49.666Z,45.50
2023-05-19T07:55:34.344Z,45.90
2023-05-19T07:56:29.892Z,44.79
2023-05-19T07:57:26.456Z,44.29
2023-05-19T07:58:21.996Z,44.49
2023-05-19T07:59:17.556Z,44.09
2023-05-19T08:00:13.091Z,44.57
2023-05-19T08:01:08.630Z,44.37
2023-05-19T08:02:04.191Z,44.87
2023-05-19T08:02:59.932Z,44.27
2023-05-19T08:03:55.457Z,43.46
2023-05-19T08:04:50.904Z,44.17
2023-05-19T08:05:46.417Z,43.08
2023-05-19T08:06:41.946Z,44.09
2023-05-19T08:07:37.514Z,43.18
2023-05-19T08:08:33.041Z,43.87
2023-05-19T08:09:28.602Z,43.76
2023-05-19T08:10:24.172Z,43.06
2023-05-19T08:11:19.686Z,43.46
2023-05-19T08:12:15.249Z,44.17
2023-05-19T08:13:10.791Z,44.47
2023-05-19T08:14:06.321Z,44.15
2023-05-19T08:15:02.122Z,44.57
2023-05-19T08:15:57.506Z,43.84
2023-05-19T08:16:52.967Z,44.15
2023-05-19T08:17:48.540Z,43.74
2023-05-19T08:18:44.131Z,43.95
2023-05-19T08:19:39.609Z,44.04
2023-05-19T08:20:35.397Z,44.35
2023-05-19T08:21:30.693Z,43.22
2023-05-19T08:22:26.229Z,43.12
2023-05-19T08:23:21.771Z,43.44
2023-05-19T08:24:17.303Z,43.72
2023-05-19T08:25:12.848Z,43.02
2023-05-19T08:26:08.405Z,41.91
2023-05-19T08:27:03.967Z,42.33
2023-05-19T08:27:59.506Z,42.92
2023-05-19T08:28:55.053Z,43.12
2023-05-19T08:29:50.584Z,42.11
2023-05-19T08:30:46.112Z,42.01
2023-05-19T08:31:41.715Z,42.92
2023-05-19T08:32:37.230Z,41.89
2023-05-19T08:33:32.734Z,42.10
2023-05-19T08:34:28.316Z,42.80
2023-05-19T08:35:23.830Z,42.19
2023-05-19T08:36:19.390Z,42.10
2023-05-19T08:37:14.926Z,41.69
2023-05-19T08:38:10.469Z,41.59
2023-05-19T08:39:06.004Z,41.89
2023-05-19T08:40:01.543Z,41.47
2023-05-19T08:40:57.091Z,41.39
2023-05-19T08:41:52.642Z,40.99
2023-05-19T08:42:48.180Z,40.89
2023-05-19T08:43:43.727Z,40.48
2023-05-19T08:44:39.278Z,40.67
2023-05-19T08:45:35.058Z,40.39
2023-05-19T08:46:30.474Z,40.47
2023-05-19T08:47:25.928Z,41.35
2023-05-19T08:48:21.484Z,41.07
2023-05-19T08:49:17.012Z,39.95
2023-05-19T08:50:12.636Z,40.75
2023-05-19T08:51:08.089Z,40.85
2023-05-19T08:52:03.629Z,40.45
2023-05-19T08:52:59.172Z,40.25
2023-05-19T08:53:54.714Z,40.35
2023-05-19T08:54:50.250Z,41.25
2023-05-19T08:55:45.800Z,40.85
2023-05-19T08:56:41.337Z,40.43
2023-05-19T08:57:36.871Z,40.15
2023-05-19T08:58:32.422Z,40.65
2023-05-19T08:59:17.161Z,40.15
2023-05-19T09:00:01.765Z,39.86
2023-05-19T09:00:58.006Z,39.95
2023-05-19T09:01:53.451Z,40.05
2023-05-19T09:02:59.709Z,40.06
2023-05-19T09:03:44.646Z,39.56
2023-05-19T09:04:40.156Z,39.95
2023-05-19T09:05:35.937Z,40.55
2023-05-19T09:06:31.161Z,41.05
2023-05-19T09:07:26.692Z,40.65
2023-05-19T09:08:22.230Z,40.53
2023-05-19T09:09:17.782Z,40.03
2023-05-19T09:10:13.327Z,40.53
2023-05-19T09:11:08.891Z,41.03
2023-05-19T09:12:04.442Z,40.31
2023-05-19T09:12:59.971Z,39.91
2023-05-19T09:13:55.518Z,40.41
2023-05-19T09:14:51.049Z,39.71
2023-05-19T09:15:46.618Z,39.79
2023-05-19T09:16:42.275Z,39.67
2023-05-19T09:17:37.800Z,40.57
2023-05-19T09:18:33.312Z,39.75
2023-05-19T09:19:18.051Z,39.15
2023-05-19T09:20:13.549Z,38.65
2023-05-19T09:21:09.127Z,39.05
2023-05-19T09:22:04.614Z,38.95
2023-05-19T09:23:00.174Z,39.47
2023-05-19T09:23:55.707Z,37.95
2023-05-19T09:24:51.260Z,38.15
2023-05-19T09:25:46.811Z,37.93
2023-05-19T09:26:42.350Z,37.13
2023-05-19T09:27:37.886Z,36.21
2023-05-19T09:28:33.468Z,36.91
2023-05-19T09:29:29.002Z,36.78
2023-05-19T09:30:24.557Z,36.66
2023-05-19T09:31:20.099Z,36.86
2023-05-19T09:32:15.730Z,37.44
2023-05-19T09:33:11.206Z,35.83
2023-05-19T09:33:55.857Z,36.02
2023-05-19T09:34:51.408Z,35.91
2023-05-19T09:35:46.945Z,36.80
2023-05-19T09:36:42.525Z,36.19
2023-05-19T09:37:38.054Z,36.18
2023-05-19T09:38:33.590Z,36.16
2023-05-19T09:39:29.151Z,35.14
2023-05-19T09:40:24.694Z,35.92
2023-05-19T09:41:20.237Z,34.41
2023-05-19T09:42:15.793Z,33.22
2023-05-19T09:43:11.347Z,33.40
2023-05-19T09:44:06.890Z,32.60
2023-05-19T09:45:02.456Z,33.18
2023-05-19T09:45:58.040Z,32.97
2023-05-19T09:46:53.546Z,33.06
2023-05-19T09:47:49.152Z,31.75
2023-05-19T09:48:44.658Z,32.35
2023-05-19T09:49:40.188Z,31.92
2023-05-19T09:50:35.762Z,31.23
2023-05-19T09:51:31.289Z,31.31
2023-05-19T09:52:26.881Z,30.10
2023-05-19T09:53:22.394Z,31.39
2023-05-19T09:54:17.930Z,31.38
2023-05-19T09:55:13.574Z,30.39
2023-05-19T09:55:58.152Z,29.19
2023-05-19T09:56:53.699Z,29.68
2023-05-19T09:57:49.248Z,28.99
2023-05-19T09:58:44.810Z,29.19
2023-05-19T09:59:40.366Z,28.69
2023-05-19T10:00:35.911Z,27.81
2023-05-19T10:01:31.529Z,28.01
2023-05-19T10:02:27.060Z,28.31
2023-05-19T10:03:22.565Z,28.51
2023-05-19T10:04:18.107Z,27.51
2023-05-19T10:05:13.692Z,28.03
2023-05-19T10:06:09.250Z,28.32
2023-05-19T10:07:04.752Z,28.44
2023-05-19T10:08:00.339Z,27.44
2023-05-19T10:08:55.857Z,27.83
2023-05-19T10:09:51.409Z,27.83
2023-05-19T10:10:46.960Z,27.73
2023-05-19T10:11:42.509Z,27.92
2023-05-19T10:12:38.077Z,28.03
2023-05-19T10:13:33.619Z,27.55
2023-05-19T10:14:29.242Z,28.04
2023-05-19T10:15:24.735Z,28.32
2023-05-19T10:16:20.320Z,28.13
2023-05-19T10:17:15.836Z,28.13
2023-05-19T10:18:11.424Z,27.92
2023-05-19T10:19:06.977Z,28.21
2023-05-19T10:20:02.508Z,27.81
2023-05-19T10:20:58.363Z,28.21
2023-05-19T10:21:53.621Z,28.31
2023-05-19T10:22:49.207Z,27.40
2023-05-19T10:23:44.825Z,28.20
2023-05-19T10:24:40.335Z,27.40
2023-05-19T10:25:35.913Z,27.50
2023-05-19T10:26:31.465Z,28.39
2023-05-19T10:27:27.001Z,28.20
2023-05-19T10:28:22.563Z,27.70
2023-05-19T10:29:07.300Z,27.70
2023-05-19T10:30:02.826Z,27.32
2023-05-19T10:30:58.373Z,28.11
2023-05-19T10:31:53.978Z,28.11
2023-05-19T10:32:50.136Z,28.39
2023-05-19T10:33:45.641Z,27.90
2023-05-19T10:34:41.193Z,27.62
2023-05-19T10:35:37.141Z,27.90
2023-05-19T10:36:32.356Z,28.11
2023-05-19T10:37:27.903Z,27.62
2023-05-19T10:38:23.467Z,27.81
2023-05-19T10:39:19.032Z,27.81
2023-05-19T10:40:14.595Z,27.83
2023-05-19T10:41:10.103Z,27.73
2023-05-19T10:42:05.668Z,28.32
2023-05-19T10:43:01.221Z,28.34
2023-05-19T10:43:56.780Z,28.04
2023-05-19T10:44:52.329Z,27.44
2023-05-19T10:45:47.886Z,27.64
2023-05-19T10:46:43.539Z,28.53
2023-05-19T10:47:39.056Z,27.56
2023-05-19T10:48:34.553Z,28.23
2023-05-19T10:49:30.105Z,26.96
2023-05-19T10:50:25.652Z,27.66
2023-05-19T10:51:21.210Z,27.75
2023-05-19T10:52:16.748Z,28.36
2023-05-19T10:53:12.312Z,28.36
2023-05-19T10:54:07.852Z,28.18
2023-05-19T10:55:03.432Z,28.09
2023-05-19T10:55:58.942Z,28.49
2023-05-19T10:56:54.488Z,29.30
2023-05-19T10:57:50.033Z,29.10
2023-05-19T10:58:45.603Z,29.20
2023-05-19T10:59:41.145Z,28.89
2023-05-19T11:00:36.694Z,27.71
2023-05-19T11:01:32.348Z,28.41
2023-05-19T11:02:27.821Z,28.12
2023-05-19T11:03:24.449Z,27.92
2023-05-19T11:04:19.548Z,27.92
2023-05-19T11:05:15.184Z,28.02
2023-05-19T11:06:10.616Z,28.32
2023-05-19T11:07:06.163Z,28.50
2023-05-19T11:08:01.710Z,28.41
2023-05-19T11:08:57.293Z,28.79
2023-05-19T11:09:52.853Z,28.89
2023-05-19T11:10:48.408Z,29.07
2023-05-19T11:11:43.938Z,28.77
2023-05-19T11:12:39.467Z,28.59
2023-05-19T11:13:35.030Z,27.91
2023-05-19T11:14:30.582Z,28.20
2023-05-19T11:15:26.173Z,28.60
2023-05-19T11:16:21.729Z,28.01
2023-05-19T11:17:17.260Z,29.11
2023-05-19T11:18:12.848Z,29.71
2023-05-19T11:19:08.389Z,29.31
2023-05-19T11:20:03.910Z,29.61
2023-05-19T11:20:59.470Z,29.10
2023-05-19T11:21:55.050Z,28.80
2023-05-19T11:22:50.549Z,29.20
2023-05-19T11:23:46.193Z,28.80
2023-05-19T11:24:41.624Z,29.11
2023-05-19T11:25:37.176Z,29.11
2023-05-19T11:26:32.745Z,28.22
2023-05-19T11:27:28.318Z,28.33
2023-05-19T11:28:23.816Z,28.93
2023-05-19T11:29:19.356Z,28.03
2023-05-19T11:30:14.950Z,28.23
2023-05-19T11:31:10.494Z,29.14
2023-05-19T11:32:06.053Z,29.24
2023-05-19T11:33:01.626Z,28.85
2023-05-19T11:33:57.126Z,29.14
2023-05-19T11:34:52.686Z,29.34
2023-05-19T11:35:48.210Z,29.84
2023-05-19T11:36:43.777Z,29.24
2023-05-19T11:37:39.318Z,29.46
2023-05-19T11:38:34.861Z,29.75
2023-05-19T11:39:30.410Z,29.35
2023-05-19T11:40:25.956Z,29.95
2023-05-19T11:41:21.496Z,29.47
2023-05-19T11:42:17.240Z,29.85
2023-05-19T11:43:12.699Z,29.57
2023-05-19T11:44:08.205Z,30.56
2023-05-19T11:45:03.810Z,30.27
2023-05-19T11:45:59.370Z,30.16
2023-05-19T11:46:54.917Z,30.08
2023-05-19T11:48:01.178Z,30.08
2023-05-19T11:48:46.071Z,30.48
2023-05-19T11:49:41.518Z,29.48
2023-05-19T11:50:37.099Z,29.60